Time;durP1;ratioP1;P1;durP2;ratioP2;P2;SDS_P1;SDS_P2;PMS_P1;PMS_P2;Temp;Humidity;BMP_temperature;BMP_pressure;BME280_temperature;BME280_humidity;BME280_pressure;Samples;Min_cycle;Max_cycle;Signal;HPM_P1;HPM_P2
2023/08/18 00:01:57;;;;;;;16.98;12.20;;;;;;;19.31;77.23;100023.66;4955376;28;20065;-72
2023/08/18 00:04:24;;;;;;;20.17;11.75;;;;;;;19.31;77.50;100030.94;4938003;28;20049;-69
2023/08/18 00:06:49;;;;;;;18.80;11.30;;;;;;;19.27;77.56;100038.53;4955536;28;20034;-69
2023/08/18 00:09:18;;;;;;;24.08;11.43;;;;;;;19.27;77.39;100026.84;4936950;28;20424;-71
2023/08/18 00:11:46;;;;;;;20.75;11.80;;;;;;;19.23;77.49;100048.78;4955855;28;20038;-72
2023/08/18 00:14:11;;;;;;;22.55;12.25;;;;;;;19.22;77.75;100030.88;4954789;28;20046;-70
2023/08/18 00:16:37;;;;;;;21.98;13.80;;;;;;;19.22;78.16;100030.88;4938041;28;20256;-72
2023/08/18 00:19:02;;;;;;;19.95;13.00;;;;;;;19.20;78.32;100029.31;4937502;28;20046;-72
2023/08/18 00:21:27;;;;;;;23.17;11.55;;;;;;;19.21;78.33;100033.72;4937865;28;20054;-74
2023/08/18 00:23:52;;;;;;;17.77;12.30;;;;;;;19.21;78.11;100044.53;4953213;28;20038;-70
2023/08/18 00:26:18;;;;;;;25.65;12.40;;;;;;;19.21;78.22;100049.94;4955316;28;20046;-71
2023/08/18 00:28:43;;;;;;;20.35;11.98;;;;;;;19.18;78.40;100029.50;4955359;28;20449;-71
2023/08/18 00:31:11;;;;;;;20.70;11.63;;;;;;;19.15;78.20;100043.31;4954158;28;20042;-72
2023/08/18 00:34:07;;;;;;;22.35;11.85;;;;;;;19.12;78.28;100040.91;4955745;28;20046;-71
2023/08/18 00:39:26;;;;;;;21.30;11.90;;;;;;;19.05;78.70;100042.53;4954709;28;20038;-70
2023/08/18 00:42:16;;;;;;;21.67;12.80;;;;;;;19.10;78.92;100037.50;4954572;28;20070;-71
2023/08/18 00:44:46;;;;;;;16.65;11.80;;;;;;;18.99;78.67;100034.19;4955666;28;20038;-77
2023/08/18 00:47:12;;;;;;;28.00;13.38;;;;;;;18.98;78.70;100044.13;4937505;28;20056;-75
2023/08/18 00:49:39;;;;;;;22.73;13.23;;;;;;;18.96;78.12;100029.94;4906208;28;20054;-75
2023/08/18 00:52:05;;;;;;;25.80;13.13;;;;;;;18.96;78.14;100039.91;4956027;28;20041;-75
2023/08/18 00:54:31;;;;;;;29.58;13.20;;;;;;;18.94;77.79;100031.97;4959378;28;20758;-73
2023/08/18 00:57:00;;;;;;;25.25;13.00;;;;;;;18.96;78.11;100039.91;4938961;28;20081;-72
2023/08/18 00:59:25;;;;;;;24.20;12.68;;;;;;;18.93;78.14;100016.75;4942133;28;20042;-72
2023/08/18 01:01:52;;;;;;;28.55;13.95;;;;;;;18.95;78.38;100033.66;4927011;28;20169;-74
2023/08/18 01:04:18;;;;;;;25.58;13.27;;;;;;;18.94;78.63;100069.78;4929526;29;20058;-76
2023/08/18 01:06:44;;;;;;;24.17;12.90;;;;;;;18.95;78.67;100030.09;4939708;29;20042;-72
2023/08/18 01:09:10;;;;;;;26.98;12.63;;;;;;;18.96;78.02;100027.22;4960552;28;20057;-73
2023/08/18 01:12:02;;;;;;;24.55;11.82;;;;;;;19.00;78.47;100036.72;4910686;29;20038;-73
2023/08/18 01:14:55;;;;;;;28.45;13.20;;;;;;;19.00;78.47;100058.34;4925823;29;20043;-75
2023/08/18 01:17:35;;;;;;;24.90;13.23;;;;;;;19.06;77.97;100030.72;4921665;29;20059;-76
2023/08/18 01:20:05;;;;;;;27.33;12.82;;;;;;;19.04;77.50;100026.47;4919965;29;20043;-75
2023/08/18 01:22:34;;;;;;;21.08;12.18;;;;;;;19.03;77.33;100008.56;4932666;28;20780;-76
2023/08/18 01:29:07;;;;;;;24.85;13.05;;;;;;;19.12;77.61;100019.28;4909831;29;20047;-73
2023/08/18 01:31:36;;;;;;;21.95;13.13;;;;;;;19.15;77.82;100019.00;4918781;29;20058;-75
2023/08/18 01:34:10;;;;;;;24.50;13.45;;;;;;;19.15;77.80;100024.41;4919489;29;20054;-75
2023/08/18 01:36:43;;;;;;;24.17;11.68;;;;;;;19.18;78.30;100005.16;4922478;28;20046;-73
2023/08/18 01:39:16;;;;;;;19.88;11.32;;;;;;;19.17;77.96;100002.63;4918894;28;20050;-73
2023/08/18 01:42:32;;;;;;;22.65;13.00;;;;;;;19.27;78.31;99995.28;4920770;29;20050;-74
2023/08/18 01:45:02;;;;;;;25.67;13.80;;;;;;;19.22;77.89;100000.28;4903136;29;20525;-74
2023/08/18 01:47:32;;;;;;;27.33;12.95;;;;;;;19.20;78.04;99999.59;4919795;28;20062;-73
2023/08/18 01:50:00;;;;;;;23.38;12.30;;;;;;;19.16;78.29;99987.41;4919567;29;20521;-74
2023/08/18 01:52:31;;;;;;;37.65;13.60;;;;;;;19.18;78.25;100007.88;4920430;29;20143;-73
2023/08/18 01:54:59;;;;;;;30.75;13.82;;;;;;;19.15;78.15;100024.41;4920477;29;20046;-73
2023/08/18 01:57:30;;;;;;;20.92;12.80;;;;;;;19.16;77.82;99993.66;4920528;29;20051;-74
2023/08/18 01:59:59;;;;;;;20.77;12.85;;;;;;;19.11;77.75;100000.53;4919329;29;20043;-73
2023/08/18 02:02:40;;;;;;;22.35;12.10;;;;;;;19.07;77.60;99999.16;4940407;28;20050;-72
2023/08/18 02:05:06;;;;;;;23.00;12.95;;;;;;;18.99;77.94;99997.22;4923300;28;20046;-73
2023/08/18 02:07:34;;;;;;;24.30;12.48;;;;;;;18.95;78.30;100000.38;4924025;28;20057;-74
2023/08/18 02:10:01;;;;;;;23.83;13.95;;;;;;;18.90;79.02;99994.59;4957991;28;20073;-73
2023/08/18 02:12:28;;;;;;;25.27;13.77;;;;;;;18.86;79.32;100024.59;4940210;28;20422;-71
2023/08/18 02:14:55;;;;;;;19.08;12.48;;;;;;;18.83;79.81;100014.13;4938000;28;20508;-72
2023/08/18 02:17:22;;;;;;;22.63;11.77;;;;;;;18.81;80.07;100017.97;4952606;28;20042;-72
2023/08/18 02:19:48;;;;;;;26.50;12.70;;;;;;;18.79;80.47;100012.72;4939915;28;20520;-71
2023/08/18 02:22:15;;;;;;;15.93;11.63;;;;;;;18.79;81.09;100019.97;4957679;28;20436;-73
2023/08/18 02:24:40;;;;;;;25.52;12.85;;;;;;;18.77;81.06;100033.63;4927567;28;20070;-73
2023/08/18 02:27:07;;;;;;;23.63;12.48;;;;;;;18.78;81.07;100038.03;4937680;28;20061;-74
2023/08/18 02:30:04;;;;;;;23.08;13.15;;;;;;;18.90;81.59;100025.16;4939821;28;20057;-73
2023/08/18 02:32:31;;;;;;;23.48;11.77;;;;;;;18.83;81.17;100030.34;4938209;28;20053;-72
2023/08/18 02:34:59;;;;;;;19.23;12.05;;;;;;;18.85;80.63;100032.84;4952678;28;20046;-71
2023/08/18 02:40:22;;;;;;;21.65;12.65;;;;;;;18.91;79.46;100037.66;4951170;28;20046;-71
2023/08/18 02:42:47;;;;;;;21.77;11.85;;;;;;;18.96;79.57;100029.94;4939813;28;20050;-72
2023/08/18 02:45:12;;;;;;;19.02;10.20;;;;;;;19.03;79.03;100036.44;4957359;28;20039;-72
2023/08/18 02:47:40;;;;;;;18.17;11.02;;;;;;;19.11;78.71;100023.00;4957400;28;20042;-71
2023/08/18 02:53:03;;;;;;;21.75;10.95;;;;;;;19.28;77.98;100040.22;4956139;28;20489;-70
2023/08/18 02:55:30;;;;;;;18.23;11.57;;;;;;;19.35;77.63;100079.13;4956248;28;20046;-71
2023/08/18 02:57:55;;;;;;;23.45;12.15;;;;;;;19.46;77.43;100059.13;4957561;28;20050;-72
2023/08/18 03:00:20;;;;;;;18.33;10.93;;;;;;;19.55;77.07;100021.19;4956094;28;20042;-72
2023/08/18 03:02:50;;;;;;;13.85;10.35;;;;;;;19.68;76.98;100057.81;4939375;28;20050;-72
2023/08/18 03:05:20;;;;;;;16.45;10.40;;;;;;;19.76;75.67;100060.56;4938888;28;20501;-70
2023/08/18 03:07:46;;;;;;;18.48;11.38;;;;;;;19.89;74.77;100050.16;4957107;28;20046;-69
2023/08/18 03:10:12;;;;;;;20.95;11.95;;;;;;;20.00;74.62;100051.75;4955923;28;20053;-70
2023/08/18 03:12:41;;;;;;;23.95;11.80;;;;;;;20.10;74.10;100049.78;4957702;28;20046;-70
2023/08/18 03:18:00;;;;;;;18.25;10.73;;;;;;;20.32;73.27;100068.16;4939469;28;20062;-70
2023/08/18 03:20:29;;;;;;;14.40;10.70;;;;;;;20.43;73.05;100059.78;4957153;28;20046;-70
2023/08/18 03:22:55;;;;;;;19.65;10.90;;;;;;;20.51;72.69;100062.56;4938976;28;20794;-70
2023/08/18 03:25:22;;;;;;;22.70;11.30;;;;;;;20.64;72.64;100062.09;4957048;28;20050;-70
2023/08/18 03:27:52;;;;;;;22.60;10.85;;;;;;;20.74;72.49;100056.53;4939452;28;20053;-70
2023/08/18 03:30:21;;;;;;;17.48;10.85;;;;;;;20.86;72.13;100063.34;4938880;28;20054;-70
2023/08/18 03:32:48;;;;;;;25.55;10.95;;;;;;;20.97;71.62;100091.00;4955475;28;20046;-70
2023/08/18 03:35:16;;;;;;;18.48;10.75;;;;;;;21.09;70.72;100034.59;4939685;28;20049;-70
2023/08/18 03:38:10;;;;;;;15.63;9.95;;;;;;;21.34;70.38;100059.88;4956610;28;20050;-70
2023/08/18 03:40:37;;;;;;;19.98;11.40;;;;;;;21.37;69.72;100052.28;4938716;28;20528;-70
2023/08/18 03:43:07;;;;;;;23.92;11.55;;;;;;;21.52;68.80;100041.59;4938580;28;20523;-72
2023/08/18 03:45:34;;;;;;;17.58;10.57;;;;;;;21.65;68.64;100055.50;4955203;28;20374;-70
2023/08/18 03:47:59;;;;;;;23.40;10.27;;;;;;;21.78;68.25;100063.13;4955259;28;20054;-70
2023/08/18 03:50:30;;;;;;;20.83;12.20;;;;;;;21.94;67.99;100067.69;4955194;28;20046;-70
2023/08/18 03:52:57;;;;;;;17.27;11.07;;;;;;;22.12;67.34;100037.66;4939165;28;20050;-69
2023/08/18 03:55:30;;;;;;;16.40;10.27;;;;;;;22.24;66.23;100042.50;4955324;28;20046;-69
2023/08/18 03:57:56;;;;;;;18.77;11.40;;;;;;;22.37;65.09;100052.81;4938332;28;20066;-69
2023/08/18 04:00:22;;;;;;;22.27;11.60;;;;;;;22.50;64.48;100025.94;4938570;28;20038;-69
2023/08/18 04:02:48;;;;;;;17.35;10.32;;;;;;;22.61;64.42;100044.56;4955223;28;20053;-69
2023/08/18 04:05:19;;;;;;;20.25;11.27;;;;;;;22.78;63.98;100050.81;4939243;28;20817;-71
2023/08/18 04:07:48;;;;;;;17.90;11.38;;;;;;;22.97;63.51;100049.50;4938738;28;20050;-71
2023/08/18 04:10:14;;;;;;;25.95;12.23;;;;;;;23.17;62.85;100061.63;4935611;28;20054;-71
2023/08/18 04:12:40;;;;;;;19.25;11.27;;;;;;;23.36;62.46;100055.72;4935753;28;20078;-70
2023/08/18 04:15:07;;;;;;;17.13;11.07;;;;;;;23.55;61.38;100048.09;4936879;28;20039;-70
2023/08/18 04:17:38;;;;;;;20.05;10.50;;;;;;;23.69;60.02;100050.03;4919064;28;20062;-70
2023/08/18 04:20:29;;;;;;;18.92;10.27;;;;;;;23.93;59.82;100052.47;4936859;28;20062;-70
2023/08/18 04:22:58;;;;;;;23.63;12.50;;;;;;;24.23;58.93;100053.41;4937024;28;20046;-70
2023/08/18 04:25:25;;;;;;;24.08;12.23;;;;;;;24.49;58.50;100053.75;4938343;28;20061;-70
2023/08/18 04:27:50;;;;;;;17.60;11.20;;;;;;;24.82;57.64;100048.75;4956523;28;20112;-70
2023/08/18 04:30:19;;;;;;;20.33;10.52;;;;;;;25.10;56.92;100067.13;4944217;28;20531;-70
2023/08/18 04:32:47;;;;;;;15.00;11.10;;;;;;;25.42;55.32;100033.88;4961240;28;20057;-70
2023/08/18 04:35:12;;;;;;;18.20;11.70;;;;;;;25.76;53.82;100035.88;4962458;28;20038;-69
2023/08/18 04:37:39;;;;;;;20.63;12.55;;;;;;;26.10;52.28;100043.25;4961209;28;20389;-69
2023/08/18 04:40:06;;;;;;;16.63;10.07;;;;;;;26.41;52.35;100017.44;4961170;28;20397;-70
2023/08/18 04:42:33;;;;;;;17.05;10.00;;;;;;;26.71;52.72;100051.63;4960932;28;20054;-70
2023/08/18 04:45:00;;;;;;;15.95;10.80;;;;;;;26.97;52.48;100056.41;4945004;28;20413;-70
2023/08/18 04:47:28;;;;;;;18.50;10.70;;;;;;;27.23;51.94;100061.94;4945182;28;20050;-70
2023/08/18 04:49:54;;;;;;;20.83;11.20;;;;;;;27.48;51.18;100060.28;4944970;28;20049;-70
2023/08/18 04:52:45;;;;;;;18.77;10.25;;;;;;;27.81;50.70;100059.50;4912363;28;20065;-71
2023/08/18 04:55:16;;;;;;;16.77;10.32;;;;;;;28.01;49.85;100060.31;4944625;28;20041;-71
2023/08/18 04:57:47;;;;;;;35.53;11.27;;;;;;;28.14;48.77;100064.94;4961235;28;20873;-71
2023/08/18 05:00:13;;;;;;;19.15;11.10;;;;;;;28.22;48.98;100055.69;4961053;28;20377;-71
2023/08/18 05:02:39;;;;;;;14.90;10.48;;;;;;;28.23;48.96;100040.91;4944610;28;20054;-70
2023/08/18 05:05:06;;;;;;;17.25;9.60;;;;;;;28.08;48.96;100060.31;4960618;28;20061;-72
2023/08/18 05:08:00;;;;;;;21.20;10.30;;;;;;;27.81;49.43;100060.34;4944445;28;20057;-72
2023/08/18 05:11:04;;;;;;;22.13;10.32;;;;;;;27.64;49.31;100053.59;4963590;28;20054;-72
2023/08/18 05:13:30;;;;;;;16.90;10.32;;;;;;;27.54;49.48;100053.13;4962490;28;20045;-72
2023/08/18 05:15:56;;;;;;;16.63;11.27;;;;;;;27.60;48.82;100048.75;4962322;28;20401;-72
2023/08/18 05:18:22;;;;;;;21.25;10.80;;;;;;;27.71;48.81;100059.06;4962082;28;20064;-71
2023/08/18 05:20:47;;;;;;;20.77;11.50;;;;;;;27.79;48.98;100051.47;4962215;28;20482;-72
2023/08/18 05:23:43;;;;;;;23.70;10.63;;;;;;;27.85;49.25;100044.31;4944293;28;20057;-72
2023/08/18 05:26:10;;;;;;;41.92;14.30;;;;;;;27.88;50.15;100056.75;4946517;28;20061;-71
2023/08/18 05:28:36;;;;;;;23.75;11.35;;;;;;;27.77;50.62;100050.00;4943519;28;20054;-71
2023/08/18 05:31:07;;;;;;;29.15;13.27;;;;;;;27.62;51.15;100055.69;4962289;28;20053;-71
2023/08/18 05:33:32;;;;;;;14.85;10.40;;;;;;;27.46;50.66;100064.28;4961880;28;20038;-72
2023/08/18 05:36:01;;;;;;;14.20;10.00;;;;;;;27.33;50.74;100053.31;4962013;28;20489;-71
2023/08/18 05:38:27;;;;;;;23.58;11.40;;;;;;;27.16;50.54;100044.66;4961854;28;20050;-71
2023/08/18 05:40:55;;;;;;;22.88;11.40;;;;;;;27.00;50.26;100013.03;4955918;28;20046;-71
2023/08/18 05:43:20;;;;;;;23.83;10.35;;;;;;;26.90;50.85;100023.50;4941296;28;20062;-71
2023/08/18 05:45:48;;;;;;;15.10;9.65;;;;;;;26.87;50.91;100056.72;4940409;28;20531;-70
2023/08/18 05:48:14;;;;;;;23.42;11.77;;;;;;;26.83;50.72;100049.16;4941308;28;20042;-70
2023/08/18 05:50:40;;;;;;;16.58;10.40;;;;;;;26.81;50.16;100045.78;4958799;28;20046;-70
2023/08/18 05:53:06;;;;;;;17.13;10.43;;;;;;;26.80;50.68;100039.47;4954077;28;20046;-70
2023/08/18 05:55:56;;;;;;;27.88;11.35;;;;;;;26.79;49.93;100043.25;4939627;28;20634;-70
2023/08/18 05:58:24;;;;;;;18.77;10.77;;;;;;;26.76;49.42;100033.53;4922057;28;20062;-70
2023/08/18 06:00:55;;;;;;;19.13;11.18;;;;;;;26.78;49.29;100041.53;4942443;28;20510;-70
2023/08/18 06:03:23;;;;;;;21.70;10.32;;;;;;;26.71;49.78;100047.00;4919685;29;20055;-70
2023/08/18 06:05:50;;;;;;;18.55;10.43;;;;;;;26.61;50.69;100051.16;4918570;29;20039;-69
2023/08/18 06:08:22;;;;;;;23.40;10.38;;;;;;;26.61;51.41;100057.47;4907715;29;20042;-71
2023/08/18 06:10:50;;;;;;;21.05;10.45;;;;;;;26.60;52.04;100033.91;4919016;29;20059;-72
2023/08/18 06:13:16;;;;;;;20.75;10.43;;;;;;;26.56;51.48;100042.72;4918928;29;20050;-71
2023/08/18 06:15:42;;;;;;;20.30;10.88;;;;;;;26.55;51.17;100051.97;4918834;29;20054;-71
2023/08/18 06:18:13;;;;;;;14.52;10.25;;;;;;;26.63;51.85;100043.59;4918368;29;20058;-71
2023/08/18 06:20:40;;;;;;;15.57;9.50;;;;;;;26.70;51.85;100044.47;4918999;29;20051;-71
2023/08/18 06:23:05;;;;;;;14.52;9.10;;;;;;;26.85;52.36;100047.91;4920553;29;20391;-72
2023/08/18 06:25:32;;;;;;;16.30;8.95;;;;;;;27.09;52.48;100063.78;4934969;28;20051;-72
2023/08/18 06:30:48;;;;;;;28.60;12.85;;;;;;;27.98;49.81;100062.66;4919750;29;20058;-72
2023/08/18 06:33:15;;;;;;;21.85;11.75;;;;;;;28.56;47.95;100058.09;4920508;29;20054;-71
2023/08/18 06:35:40;;;;;;;20.02;10.70;;;;;;;29.13;46.74;100054.50;4919124;29;20410;-72
2023/08/18 06:38:05;;;;;;;20.73;11.13;;;;;;;29.60;45.66;100063.31;4921565;29;20051;-72
2023/08/18 06:40:31;;;;;;;20.08;10.90;;;;;;;30.21;44.59;100040.59;4944958;28;20045;-71
2023/08/18 06:43:00;;;;;;;20.33;10.88;;;;;;;31.12;42.39;100043.34;4944812;28;20041;-71
2023/08/18 06:45:26;;;;;;;26.88;11.88;;;;;;;31.89;40.24;100038.75;4956449;28;20043;-71
2023/08/18 06:47:52;;;;;;;20.73;11.30;;;;;;;32.67;38.99;100034.75;4920777;29;20489;-70
2023/08/18 06:50:21;;;;;;;22.38;10.80;;;;;;;33.29;37.93;100035.75;4920555;28;20046;-70
2023/08/18 06:52:48;;;;;;;34.40;11.82;;;;;;;33.58;36.97;100035.69;4920305;29;20054;-70
2023/08/18 06:55:14;;;;;;;17.77;11.68;;;;;;;33.61;37.19;99980.75;4920295;28;20051;-68
2023/08/18 06:58:05;;;;;;;27.83;12.02;;;;;;;33.31;37.26;99988.50;4919180;29;20058;-70
2023/08/18 07:00:30;;;;;;;23.00;11.88;;;;;;;33.22;37.26;100037.78;4922833;28;20459;-71
2023/08/18 07:02:56;;;;;;;26.20;12.82;;;;;;;33.10;37.52;100034.25;4939428;28;20054;-71
2023/08/18 07:05:26;;;;;;;19.98;10.82;;;;;;;33.30;37.22;100007.00;4957241;28;20045;-71
2023/08/18 07:07:58;;;;;;;20.27;9.63;;;;;;;34.21;36.40;100063.88;4939400;28;20058;-71
2023/08/18 07:10:26;;;;;;;16.25;10.25;;;;;;;35.33;35.42;99981.38;4957245;28;20042;-72
2023/08/18 07:12:53;;;;;;;21.30;10.07;;;;;;;36.20;34.15;100069.75;4956082;28;20050;-72
2023/08/18 07:15:20;;;;;;;19.77;10.82;;;;;;;36.69;33.86;100031.47;4957023;28;20774;-72
2023/08/18 07:17:47;;;;;;;16.40;9.93;;;;;;;36.63;33.22;100038.94;4956948;28;20443;-71
2023/08/18 07:20:16;;;;;;;13.50;10.15;;;;;;;36.42;34.40;100031.59;4957025;28;20126;-72
2023/08/18 07:22:44;;;;;;;12.68;10.23;;;;;;;36.25;32.85;100044.81;4955758;28;20058;-72
2023/08/18 07:25:15;;;;;;;21.57;10.07;;;;;;;35.87;32.73;100044.00;4956801;28;20421;-72
2023/08/18 07:27:42;;;;;;;18.60;11.07;;;;;;;35.58;33.31;100029.56;4957507;28;20069;-71
2023/08/18 07:30:32;;;;;;;21.92;10.93;;;;;;;35.51;34.10;100036.44;4956893;28;20061;-73
2023/08/18 07:32:58;;;;;;;18.27;10.65;;;;;;;35.72;34.95;100041.06;4956819;28;20053;-72
2023/08/18 07:35:24;;;;;;;16.80;10.63;;;;;;;36.25;33.67;100044.81;4939096;28;20046;-72
2023/08/18 07:37:51;;;;;;;15.70;10.38;;;;;;;36.70;32.35;100050.66;4956876;28;20049;-72
2023/08/18 07:40:19;;;;;;;17.73;10.18;;;;;;;37.47;31.75;100056.47;4956526;28;20057;-72
2023/08/18 07:42:45;;;;;;;21.27;10.77;;;;;;;38.54;30.63;100009.91;4955276;28;20042;-71
2023/08/18 07:45:13;;;;;;;19.00;10.90;;;;;;;39.73;29.22;100050.47;4956534;28;20609;-73
2023/08/18 07:47:39;;;;;;;15.98;10.23;;;;;;;41.14;27.33;100046.50;4956417;28;20412;-72
2023/08/18 07:50:12;;;;;;;21.40;11.68;;;;;;;42.53;25.43;100059.56;4956314;28;20408;-73
2023/08/18 07:52:43;;;;;;;18.70;11.57;;;;;;;43.44;23.96;100060.41;4956495;28;20042;-72
2023/08/18 07:55:12;;;;;;;17.63;11.38;;;;;;;44.19;23.01;100047.56;4956239;28;20382;-72
2023/08/18 07:57:40;;;;;;;17.15;11.02;;;;;;;44.41;22.28;100044.72;4954932;28;20050;-73
2023/08/18 08:00:14;;;;;;;18.23;11.60;;;;;;;44.71;21.88;100053.41;4954904;28;20057;-71
2023/08/18 08:03:10;;;;;;;16.30;13.10;;;;;;;44.70;21.38;100046.97;4916505;28;20043;-72
2023/08/18 08:05:38;;;;;;;23.73;11.10;;;;;;;44.80;21.39;100057.16;4915526;28;20117;-71
2023/08/18 08:08:05;;;;;;;22.13;13.45;;;;;;;44.96;20.94;100037.78;4915596;29;20097;-72
2023/08/18 08:10:31;;;;;;;25.98;13.85;;;;;;;45.28;20.13;100045.81;4917449;29;20055;-70
2023/08/18 08:12:57;;;;;;;15.45;11.32;;;;;;;45.85;20.21;100042.78;4917482;29;20051;-72
2023/08/18 08:15:27;;;;;;;21.30;12.98;;;;;;;45.59;19.97;100053.31;4917545;29;20035;-72
2023/08/18 08:18:43;;;;;;;19.67;11.20;;;;;;;45.91;19.73;100042.34;4907244;29;20052;-72
2023/08/18 08:21:10;;;;;;;16.65;12.80;;;;;;;46.29;19.54;100035.91;4897011;29;20056;-71
2023/08/18 08:23:36;;;;;;;20.33;13.07;;;;;;;47.03;18.75;100023.28;4897199;29;20146;-72
2023/08/18 08:26:01;;;;;;;19.10;13.93;;;;;;;47.50;18.46;100030.41;4897284;29;20047;-72
2023/08/18 08:28:27;;;;;;;20.60;14.35;;;;;;;47.86;17.88;100021.22;4898520;29;20788;-72
2023/08/18 08:30:54;;;;;;;20.80;14.55;;;;;;;48.27;17.86;100036.44;4881083;29;20058;-73
2023/08/18 08:33:27;;;;;;;19.02;15.25;;;;;;;48.93;17.63;100025.72;4912005;29;20422;-73
2023/08/18 08:35:57;;;;;;;16.17;14.48;;;;;;;49.51;17.10;100051.81;4917095;29;20131;-71
2023/08/18 08:41:15;;;;;;;21.13;17.77;;;;;;;50.57;16.22;100025.56;4916517;29;20046;-74
2023/08/18 08:43:41;;;;;;;19.73;16.80;;;;;;;50.21;16.37;100029.50;4918049;29;20050;-74
2023/08/18 08:46:08;;;;;;;18.02;16.30;;;;;;;49.85;16.42;100027.72;4918101;29;20043;-73
2023/08/18 08:49:03;;;;;;;18.85;16.45;;;;;;;50.82;15.47;100023.31;4916879;29;20076;-71
2023/08/18 08:51:35;;;;;;;18.38;16.73;;;;;;;50.32;15.42;100030.59;4917216;29;20047;-72
2023/08/18 08:54:03;;;;;;;18.48;16.13;;;;;;;49.02;16.33;100023.56;4917405;29;20057;-73
2023/08/18 08:56:31;;;;;;;16.40;14.70;;;;;;;47.11;18.34;100028.03;4917420;29;20043;-73
2023/08/18 08:59:25;;;;;;;17.92;13.63;;;;;;;46.73;18.79;100037.41;4917302;29;20055;-71
2023/08/18 09:01:55;;;;;;;16.13;13.82;;;;;;;45.18;20.45;100035.69;4941936;28;20061;-72
2023/08/18 09:04:46;;;;;;;14.70;13.10;;;;;;;45.01;20.12;100034.84;4937546;28;20460;-72
2023/08/18 09:07:14;;;;;;;14.55;12.07;;;;;;;44.04;20.63;100047.97;4956414;28;20045;-72
2023/08/18 09:09:43;;;;;;;15.93;11.15;;;;;;;43.50;21.78;100049.88;4954157;28;20460;-71
2023/08/18 09:12:12;;;;;;;18.30;12.32;;;;;;;42.85;22.72;100053.03;4938433;28;20055;-71
2023/08/18 09:14:41;;;;;;;14.70;11.40;;;;;;;41.99;22.92;100058.31;4939403;28;20062;-71
2023/08/18 09:17:08;;;;;;;16.05;12.68;;;;;;;40.91;23.42;100060.19;4958363;28;20053;-71
2023/08/18 09:19:42;;;;;;;18.00;11.38;;;;;;;39.96;25.28;100071.25;4959399;28;20054;-70
2023/08/18 09:22:09;;;;;;;12.70;11.40;;;;;;;38.82;26.69;100068.59;4959610;28;20030;-71
2023/08/18 09:24:34;;;;;;;18.48;11.50;;;;;;;37.83;28.50;100077.66;4959173;28;20050;-71
2023/08/18 09:27:07;;;;;;;16.00;10.30;;;;;;;37.07;29.65;100077.47;4959414;28;20038;-72
2023/08/18 09:29:36;;;;;;;16.00;11.63;;;;;;;36.13;30.50;100083.84;4941182;28;20061;-71
2023/08/18 09:32:03;;;;;;;19.83;10.80;;;;;;;35.40;32.04;100074.31;4959115;28;20065;-72
2023/08/18 09:34:31;;;;;;;19.52;10.35;;;;;;;34.81;33.20;100074.19;4942593;28;20046;-72
2023/08/18 09:37:34;;;;;;;17.67;11.00;;;;;;;34.35;33.73;100096.75;4959729;28;20050;-72
2023/08/18 09:40:04;;;;;;;21.25;10.40;;;;;;;33.75;34.38;100095.47;4941104;28;20054;-71
2023/08/18 09:42:30;;;;;;;21.58;10.95;;;;;;;33.25;35.84;100084.31;4957349;28;20088;-70
2023/08/18 09:44:57;;;;;;;16.92;11.50;;;;;;;32.80;37.33;100090.56;4960564;28;20413;-71
2023/08/18 09:47:27;;;;;;;20.50;12.65;;;;;;;32.40;37.73;100095.97;4958612;28;20046;-72
2023/08/18 09:49:54;;;;;;;19.17;12.30;;;;;;;32.01;39.06;100100.28;4958198;28;20057;-72
2023/08/18 09:52:22;;;;;;;21.13;12.10;;;;;;;31.65;40.73;100112.31;4958422;28;20042;-71
2023/08/18 09:55:03;;;;;;;23.85;12.02;;;;;;;31.33;42.13;100111.69;4940320;28;20074;-71
2023/08/18 09:57:57;;;;;;;28.50;12.80;;;;;;;31.24;43.29;100115.03;4959006;28;20051;-72
2023/08/18 10:00:57;;;;;;;21.05;12.15;;;;;;;30.72;44.14;100108.22;4958819;28;20501;-72
2023/08/18 10:03:27;;;;;;;19.67;11.93;;;;;;;30.40;44.65;100101.97;4957323;28;20485;-72
2023/08/18 10:05:53;;;;;;;25.52;12.65;;;;;;;30.13;45.97;100105.00;4940140;28;20445;-72
2023/08/18 10:08:25;;;;;;;20.27;11.77;;;;;;;29.92;46.81;100114.44;4957043;28;20523;-72
2023/08/18 10:10:54;;;;;;;20.75;12.02;;;;;;;29.70;47.58;100115.03;4957792;28;20062;-71
2023/08/18 10:16:11;;;;;;;21.00;13.13;;;;;;;29.39;48.97;100091.16;4949202;28;20050;-73
2023/08/18 10:18:42;;;;;;;23.50;11.95;;;;;;;29.23;50.30;100049.38;4959085;28;20417;-74
2023/08/18 10:21:15;;;;;;;17.65;11.68;;;;;;;29.08;50.39;100087.28;4959549;28;20046;-74
2023/08/18 10:24:06;;;;;;;16.58;11.20;;;;;;;28.92;50.67;100079.53;4956739;28;20053;-74
2023/08/18 10:26:42;;;;;;;19.48;11.48;;;;;;;28.80;51.30;100084.03;4958271;28;20173;-73
2023/08/18 10:29:15;;;;;;;21.97;11.97;;;;;;;28.71;52.14;100074.31;4958888;28;20073;-73
2023/08/18 10:31:49;;;;;;;16.15;11.30;;;;;;;28.53;53.54;100075.88;4959002;28;20710;-74
2023/08/18 10:34:23;;;;;;;17.88;12.23;;;;;;;28.28;53.51;100094.06;4940585;28;20050;-72
2023/08/18 10:36:58;;;;;;;19.60;14.40;;;;;;;28.16;54.15;100074.66;4957327;28;20049;-70
2023/08/18 10:39:52;;;;;;;19.60;12.95;;;;;;;27.93;55.16;100087.94;4956719;28;20501;-71
2023/08/18 10:42:17;;;;;;;27.00;13.93;;;;;;;27.78;55.40;100085.41;4940406;28;20042;-72
2023/08/18 10:44:56;;;;;;;24.23;12.68;;;;;;;27.77;56.45;100074.66;4954202;28;20536;-73
2023/08/18 10:47:33;;;;;;;22.67;14.18;;;;;;;27.67;57.52;100096.16;4941088;28;20054;-73
2023/08/18 10:50:05;;;;;;;24.08;12.82;;;;;;;27.53;57.60;100070.63;4956133;28;20046;-71
2023/08/18 10:52:32;;;;;;;19.33;13.23;;;;;;;27.42;58.09;100079.47;4956734;28;20057;-70
2023/08/18 10:54:58;;;;;;;17.50;13.57;;;;;;;27.33;58.63;100075.22;4957057;28;20077;-72
2023/08/18 10:57:30;;;;;;;16.08;12.65;;;;;;;27.24;59.10;100080.03;4957033;28;20045;-72
2023/08/18 10:59:58;;;;;;;18.42;12.82;;;;;;;27.13;59.85;100082.53;4953084;28;20054;-73
2023/08/18 11:02:24;;;;;;;24.65;13.98;;;;;;;26.99;60.92;100082.47;4957461;28;20058;-74
2023/08/18 11:04:50;;;;;;;23.83;13.57;;;;;;;26.89;61.99;100103.88;4925436;28;20047;-73
2023/08/18 11:07:20;;;;;;;23.02;13.48;;;;;;;26.75;63.42;100094.75;4959371;28;20053;-74
2023/08/18 11:09:47;;;;;;;21.52;12.95;;;;;;;26.62;64.55;100085.69;4940217;28;20058;-74
2023/08/18 11:15:30;;;;;;;16.92;13.95;;;;;;;26.37;65.74;100061.56;4950126;28;20049;-74
2023/08/18 11:17:57;;;;;;;22.95;15.60;;;;;;;26.31;67.19;100066.97;4936429;28;20138;-75
2023/08/18 11:20:26;;;;;;;26.88;15.30;;;;;;;26.24;67.58;100047.78;4941176;28;20413;-74
2023/08/18 11:22:55;;;;;;;19.17;14.63;;;;;;;26.26;67.99;100064.81;4941022;28;20137;-73
2023/08/18 11:25:22;;;;;;;26.05;16.55;;;;;;;26.26;68.09;100051.16;4959018;28;20121;-75
2023/08/18 11:28:13;;;;;;;19.80;14.32;;;;;;;26.29;66.80;100049.94;4952414;28;20523;-75
2023/08/18 11:30:41;;;;;;;21.35;14.65;;;;;;;26.23;65.64;100031.56;4956146;28;20050;-73
2023/08/18 11:33:11;;;;;;;22.48;14.48;;;;;;;26.12;65.46;100030.25;4956245;28;20057;-73
2023/08/18 11:35:38;;;;;;;22.00;13.45;;;;;;;26.06;65.53;100033.81;4938681;28;20417;-72
2023/08/18 11:38:08;;;;;;;20.35;13.45;;;;;;;26.03;65.29;100047.84;4921951;28;20058;-69
2023/08/18 11:40:39;;;;;;;18.23;13.35;;;;;;;26.00;65.15;100032.69;4956493;28;20038;-69
2023/08/18 11:43:10;;;;;;;18.75;13.73;;;;;;;25.99;65.65;100036.47;4956577;28;20126;-68
2023/08/18 11:45:35;;;;;;;20.52;15.32;;;;;;;25.93;65.65;100063.75;4937139;28;20057;-68
2023/08/18 11:48:06;;;;;;;20.08;14.43;;;;;;;25.91;66.07;100031.16;4955753;28;20413;-69
2023/08/18 11:50:39;;;;;;;18.38;13.73;;;;;;;25.94;66.02;100030.78;4938227;28;20505;-68
2023/08/18 11:53:06;;;;;;;15.80;13.23;;;;;;;25.92;65.82;100037.47;4953715;28;20416;-68